createdAt,value
2022-09-24T00:05:32.548Z,2.6
2022-09-24T00:11:52.532Z,2.6
2022-09-24T00:18:15.527Z,2.9
2022-09-24T00:24:35.559Z,2.9
2022-09-24T00:30:58.685Z,3.9
2022-09-24T00:37:18.506Z,3.9
2022-09-24T00:43:41.634Z,2
2022-09-24T00:50:01.574Z,2
2022-09-24T00:56:24.602Z,2.9
2022-09-24T01:02:44.567Z,2.9
2022-09-24T01:09:07.558Z,3.4
2022-09-24T01:15:27.588Z,3.4
2022-09-24T01:21:50.593Z,3.6
2022-09-24T01:28:10.582Z,3.6
2022-09-24T01:34:33.570Z,3.1
2022-09-24T01:40:53.714Z,3.1
2022-09-24T01:47:16.755Z,2.5
2022-09-24T01:53:36.576Z,2.5
2022-09-24T01:59:59.527Z,5
2022-09-24T02:06:19.596Z,5
2022-09-24T02:12:42.546Z,3
2022-09-24T02:19:02.579Z,3
2022-09-24T02:25:25.528Z,2.9
2022-09-24T02:31:45.599Z,2.9
2022-09-24T02:38:08.551Z,2.4
2022-09-24T02:44:28.514Z,2.4
2022-09-24T02:50:51.775Z,2.7
2022-09-24T02:57:11.527Z,2.7
2022-09-24T03:03:34.651Z,5.3
2022-09-24T03:09:54.625Z,5.3
2022-09-24T03:32:43.414Z,6.7
2022-09-24T03:39:03.468Z,6.7
2022-09-24T03:45:26.492Z,7.6
2022-09-24T03:51:46.499Z,7.6
2022-09-24T03:58:09.489Z,3
2022-09-24T04:04:29.488Z,3
2022-09-24T04:10:52.515Z,1.5
2022-09-24T04:17:12.556Z,1.5
2022-09-24T04:23:35.483Z,2.7
2022-09-24T04:29:55.512Z,2.7
2022-09-24T04:36:18.581Z,4
2022-09-24T04:42:38.512Z,4
2022-09-24T04:49:01.628Z,3.6
2022-09-24T04:55:21.489Z,3.6
2022-09-24T05:01:44.686Z,4.1
2022-09-24T05:08:04.543Z,4.1
2022-09-24T05:14:27.507Z,4.7
2022-09-24T05:20:47.518Z,4.7
2022-09-24T05:27:10.658Z,4.3
2022-09-24T05:33:30.547Z,4.3
2022-09-24T05:39:53.492Z,5.2
2022-09-24T05:46:13.566Z,5.2
2022-09-24T05:52:36.505Z,4
2022-09-24T05:58:56.467Z,4
2022-09-24T06:05:19.596Z,3.9
2022-09-24T06:11:40.938Z,3.9
2022-09-24T06:18:02.719Z,4.7
2022-09-24T06:24:22.678Z,4.7
2022-09-24T06:30:45.516Z,4.2
2022-09-24T06:37:05.572Z,4.2
2022-09-24T06:43:28.559Z,3.6
2022-09-24T06:49:48.473Z,3.6
2022-09-24T06:56:11.550Z,5.5
2022-09-24T07:02:31.605Z,5.5
2022-09-24T07:08:54.568Z,4.9
2022-09-24T07:15:14.485Z,4.9
2022-09-24T07:21:37.510Z,4.5
2022-09-24T07:27:57.548Z,4.5
2022-09-24T07:34:20.504Z,4.1
2022-09-24T07:40:40.713Z,4.1
2022-09-24T07:47:03.527Z,3.9
2022-09-24T07:53:23.491Z,3.9
2022-09-24T07:59:46.577Z,3.3
2022-09-24T08:06:06.470Z,3.3
2022-09-24T08:12:29.519Z,3.9
2022-09-24T08:18:49.606Z,3.9
2022-09-24T08:25:12.497Z,5.9
2022-09-24T08:31:32.591Z,5.9
2022-09-24T08:37:55.677Z,2.7
2022-09-24T08:54:03.259Z,4.1
2022-09-24T09:00:26.019Z,10.5
2022-09-24T09:06:45.471Z,10.5
2022-09-24T09:13:08.576Z,10.5
2022-09-24T09:19:28.482Z,10.5
2022-09-24T09:25:51.503Z,6.7
2022-09-24T09:32:11.510Z,6.7
2022-09-24T09:38:34.515Z,6.8
2022-09-24T09:44:54.505Z,6.8
2022-09-24T09:51:21.343Z,4.2
2022-09-24T09:57:37.971Z,4.2
2022-09-24T10:04:00.743Z,5
2022-09-24T10:10:20.547Z,5
2022-09-24T10:16:43.584Z,3.1
2022-09-24T10:23:03.634Z,3.1
2022-09-24T10:29:26.523Z,5.5
2022-09-24T10:35:46.484Z,5.5
2022-09-24T10:42:09.522Z,5.6
2022-09-24T10:48:29.738Z,5.6
2022-09-24T10:54:52.855Z,3.7
2022-09-24T11:01:12.489Z,3.7
2022-09-24T11:07:35.565Z,4.3
2022-09-24T11:13:55.474Z,4.3
2022-09-24T11:20:18.525Z,4
2022-09-24T11:26:38.505Z,4
2022-09-24T11:33:01.490Z,4.3
2022-09-24T11:39:21.547Z,4.3
2022-09-24T11:45:44.493Z,3.1
2022-09-24T11:52:04.617Z,3.1
2022-09-24T11:58:27.528Z,4.5
2022-09-24T12:04:47.635Z,4.5
2022-09-24T12:11:10.479Z,4.8
2022-09-24T12:17:30.512Z,4.8
2022-09-24T12:24:02.166Z,3.4
2022-09-24T12:30:13.508Z,3.4
2022-09-24T12:36:36.548Z,4.7
2022-09-24T12:42:56.511Z,4.7
2022-09-24T12:49:19.504Z,9.9
2022-09-24T12:55:39.525Z,9.9
2022-09-24T13:02:02.732Z,6.7
2022-09-24T13:08:23.701Z,6.7
2022-09-24T13:14:46.496Z,4.2
2022-09-24T13:21:06.570Z,4.2
2022-09-24T13:27:29.516Z,6.7
2022-09-24T13:33:49.480Z,6.7
2022-09-24T13:40:12.671Z,5.7
2022-09-24T13:46:32.535Z,5.7
2022-09-24T13:52:55.525Z,5.7
2022-09-24T13:59:15.505Z,5.7
2022-09-24T14:05:38.497Z,7.8
2022-09-24T14:29:02.586Z,10.9
2022-09-24T14:35:25.516Z,10.9
2022-09-24T14:41:45.548Z,9.1
2022-09-24T14:48:05.510Z,9.1
2022-09-24T14:54:28.505Z,15.5
2022-09-24T15:00:48.564Z,15.5
2022-09-24T15:07:11.537Z,11.4
2022-09-24T15:13:31.580Z,11.4
2022-09-24T15:19:54.515Z,7.6
2022-09-24T15:26:14.513Z,7.6
2022-09-24T15:32:37.560Z,11.6
2022-09-24T15:38:57.486Z,11.6
2022-09-24T15:45:20.548Z,10.3
2022-09-24T15:51:40.548Z,10.3
2022-09-24T15:58:03.801Z,10.6
2022-09-24T16:04:23.839Z,10.6
2022-09-24T16:10:46.476Z,8.1
2022-09-24T16:17:06.563Z,8.1
2022-09-24T16:23:29.531Z,8.1
2022-09-24T16:29:49.490Z,8.1
2022-09-24T16:36:12.574Z,8.3
2022-09-24T16:42:32.498Z,8.3
2022-09-24T16:48:55.548Z,8.6
2022-09-24T16:55:15.514Z,8.6
2022-09-24T17:01:38.625Z,9.4
2022-09-24T17:07:58.533Z,9.4
2022-09-24T17:14:21.510Z,9.1
2022-09-24T17:20:41.626Z,9.1
2022-09-24T17:27:04.505Z,9.8
2022-09-24T17:33:42.115Z,9.8
2022-09-24T17:39:47.568Z,8.7
2022-09-24T17:46:11.491Z,8.7
2022-09-24T17:52:30.532Z,10.2
2022-09-24T17:58:50.483Z,10.2
2022-09-24T18:05:13.500Z,9.5
2022-09-24T18:11:33.515Z,9.5
2022-09-24T18:17:56.500Z,6.4
2022-09-24T18:24:16.627Z,6.4
2022-09-24T18:30:39.475Z,6.4
2022-09-24T18:36:59.586Z,6.4
2022-09-24T18:43:22.958Z,6.5
2022-09-24T18:49:42.518Z,6.5
2022-09-24T18:56:05.525Z,8.1
2022-09-24T19:02:25.679Z,8.1
2022-09-24T19:08:48.563Z,8
2022-09-24T19:15:08.492Z,8
2022-09-24T19:21:31.489Z,3.7
2022-09-24T19:27:52.603Z,3.7
2022-09-24T19:44:57.087Z,5.5
2022-09-24T19:51:16.487Z,5.5
2022-09-24T19:57:39.459Z,14.3
2022-09-24T20:03:59.581Z,14.3
2022-09-24T20:10:22.465Z,14.3
2022-09-24T20:16:42.496Z,14.3
2022-09-24T20:23:05.606Z,9.9
2022-09-24T20:29:25.476Z,9.9
2022-09-24T20:35:48.541Z,9.9
2022-09-24T20:42:08.499Z,9.9
2022-09-24T20:48:31.480Z,10.7
2022-09-24T20:54:51.535Z,10.7
2022-09-24T21:01:14.560Z,9.5
2022-09-24T21:07:34.544Z,9.5
2022-09-24T21:13:57.493Z,13.3
2022-09-24T21:20:17.585Z,13.3
2022-09-24T21:26:40.583Z,10.3
2022-09-24T21:33:00.491Z,10.3
2022-09-24T21:39:23.584Z,10.4
2022-09-24T21:45:43.508Z,10.4
2022-09-24T21:52:06.495Z,12.9
2022-09-24T21:58:26.570Z,12.9
2022-09-24T22:22:43.551Z,31
2022-09-24T22:29:03.502Z,31
2022-09-24T22:35:26.537Z,31
2022-09-24T22:41:46.544Z,31
2022-09-24T22:48:09.497Z,19
2022-09-24T22:54:29.541Z,19
2022-09-24T23:00:52.610Z,16.4
2022-09-24T23:07:12.589Z,16.4
2022-09-24T23:13:35.467Z,12.5
2022-09-24T23:19:55.671Z,12.5
2022-09-24T23:26:18.508Z,14.6
2022-09-24T23:32:38.544Z,14.6
2022-09-24T23:39:01.624Z,19.7
2022-09-24T23:45:21.519Z,19.7
2022-09-24T23:51:44.562Z,24
2022-09-24T23:58:04.505Z,24
